sensor_id;sensor_type;location;lat;lon;timestamp;temperature;humidity
24326;DHT22;12448;45.532;5.290;2023-08-06T00:01:31;18.90;74.30
24326;DHT22;12448;45.532;5.290;2023-08-06T00:04:03;18.90;74.50
24326;DHT22;12448;45.532;5.290;2023-08-06T00:06:29;19.00;74.60
24326;DHT22;12448;45.532;5.290;2023-08-06T00:09:03;19.00;74.60
24326;DHT22;12448;45.532;5.290;2023-08-06T00:11:29;19.00;74.80
24326;DHT22;12448;45.532;5.290;2023-08-06T00:13:54;19.00;75.10
24326;DHT22;12448;45.532;5.290;2023-08-06T00:16:20;19.00;75.40
24326;DHT22;12448;45.532;5.290;2023-08-06T00:18:46;19.00;75.40
24326;DHT22;12448;45.532;5.290;2023-08-06T00:21:11;19.00;74.90
24326;DHT22;12448;45.532;5.290;2023-08-06T00:23:38;19.00;74.10
24326;DHT22;12448;45.532;5.290;2023-08-06T00:26:03;19.00;73.20
24326;DHT22;12448;45.532;5.290;2023-08-06T00:28:29;18.90;73.00
24326;DHT22;12448;45.532;5.290;2023-08-06T00:30:57;18.90;73.00
24326;DHT22;12448;45.532;5.290;2023-08-06T00:33:23;18.90;73.50
24326;DHT22;12448;45.532;5.290;2023-08-06T00:36:22;18.90;72.90
24326;DHT22;12448;45.532;5.290;2023-08-06T00:38:47;18.90;72.40
24326;DHT22;12448;45.532;5.290;2023-08-06T00:41:13;18.90;72.80
24326;DHT22;12448;45.532;5.290;2023-08-06T00:43:39;18.90;72.80
24326;DHT22;12448;45.532;5.290;2023-08-06T00:46:08;18.90;72.70
24326;DHT22;12448;45.532;5.290;2023-08-06T00:48:50;18.90;72.40
24326;DHT22;12448;45.532;5.290;2023-08-06T00:51:16;18.90;72.80
24326;DHT22;12448;45.532;5.290;2023-08-06T00:53:42;18.90;73.90
24326;DHT22;12448;45.532;5.290;2023-08-06T00:56:09;18.90;73.00
24326;DHT22;12448;45.532;5.290;2023-08-06T00:58:35;18.90;73.30
24326;DHT22;12448;45.532;5.290;2023-08-06T01:01:12;18.90;73.10
24326;DHT22;12448;45.532;5.290;2023-08-06T01:03:38;18.80;73.20
24326;DHT22;12448;45.532;5.290;2023-08-06T01:06:05;18.80;73.50
24326;DHT22;12448;45.532;5.290;2023-08-06T01:08:58;18.80;73.70
24326;DHT22;12448;45.532;5.290;2023-08-06T01:14:13;18.60;74.00
24326;DHT22;12448;45.532;5.290;2023-08-06T01:16:41;18.60;74.10
24326;DHT22;12448;45.532;5.290;2023-08-06T01:19:21;18.60;74.20
24326;DHT22;12448;45.532;5.290;2023-08-06T01:21:47;18.70;74.50
24326;DHT22;12448;45.532;5.290;2023-08-06T01:24:14;18.70;74.50
24326;DHT22;12448;45.532;5.290;2023-08-06T01:26:54;18.70;74.40
24326;DHT22;12448;45.532;5.290;2023-08-06T01:29:44;18.80;74.40
24326;DHT22;12448;45.532;5.290;2023-08-06T01:32:16;18.80;73.80
24326;DHT22;12448;45.532;5.290;2023-08-06T01:34:44;18.70;74.20
24326;DHT22;12448;45.532;5.290;2023-08-06T01:37:10;18.70;74.50
24326;DHT22;12448;45.532;5.290;2023-08-06T01:39:37;18.70;74.30
24326;DHT22;12448;45.532;5.290;2023-08-06T01:42:06;18.60;74.30
24326;DHT22;12448;45.532;5.290;2023-08-06T01:44:31;18.60;74.40
24326;DHT22;12448;45.532;5.290;2023-08-06T01:46:57;18.60;74.50
24326;DHT22;12448;45.532;5.290;2023-08-06T01:49:26;18.50;74.50
24326;DHT22;12448;45.532;5.290;2023-08-06T01:51:58;18.50;74.60
24326;DHT22;12448;45.532;5.290;2023-08-06T01:54:27;18.60;74.70
24326;DHT22;12448;45.532;5.290;2023-08-06T01:56:53;18.50;74.60
24326;DHT22;12448;45.532;5.290;2023-08-06T01:59:19;18.50;74.70
24326;DHT22;12448;45.532;5.290;2023-08-06T02:01:45;18.50;74.60
24326;DHT22;12448;45.532;5.290;2023-08-06T02:04:10;18.40;74.90
24326;DHT22;12448;45.532;5.290;2023-08-06T02:06:36;18.30;75.10
24326;DHT22;12448;45.532;5.290;2023-08-06T02:09:02;18.20;75.30
24326;DHT22;12448;45.532;5.290;2023-08-06T02:11:28;18.20;75.70
24326;DHT22;12448;45.532;5.290;2023-08-06T02:13:54;18.20;75.90
24326;DHT22;12448;45.532;5.290;2023-08-06T02:16:22;18.20;75.50
24326;DHT22;12448;45.532;5.290;2023-08-06T02:18:48;18.00;75.80
24326;DHT22;12448;45.532;5.290;2023-08-06T02:21:14;18.10;76.40
24326;DHT22;12448;45.532;5.290;2023-08-06T02:23:42;18.00;76.60
24326;DHT22;12448;45.532;5.290;2023-08-06T02:26:08;17.90;77.00
24326;DHT22;12448;45.532;5.290;2023-08-06T02:28:33;17.90;77.00
24326;DHT22;12448;45.532;5.290;2023-08-06T02:30:59;18.00;77.00
24326;DHT22;12448;45.532;5.290;2023-08-06T02:33:25;17.90;77.20
24326;DHT22;12448;45.532;5.290;2023-08-06T02:35:51;17.80;77.50
24326;DHT22;12448;45.532;5.290;2023-08-06T02:38:27;17.80;77.70
24326;DHT22;12448;45.532;5.290;2023-08-06T02:40:53;17.80;77.90
24326;DHT22;12448;45.532;5.290;2023-08-06T02:43:22;17.80;78.20
24326;DHT22;12448;45.532;5.290;2023-08-06T02:45:48;17.70;78.30
24326;DHT22;12448;45.532;5.290;2023-08-06T02:48:16;17.60;78.50
24326;DHT22;12448;45.532;5.290;2023-08-06T02:51:13;17.60;78.90
24326;DHT22;12448;45.532;5.290;2023-08-06T02:53:41;17.50;79.00
24326;DHT22;12448;45.532;5.290;2023-08-06T02:56:07;17.50;79.20
24326;DHT22;12448;45.532;5.290;2023-08-06T02:58:33;17.50;79.40
24326;DHT22;12448;45.532;5.290;2023-08-06T03:01:07;17.50;79.40
24326;DHT22;12448;45.532;5.290;2023-08-06T03:03:33;17.50;79.50
24326;DHT22;12448;45.532;5.290;2023-08-06T03:06:00;17.40;79.40
24326;DHT22;12448;45.532;5.290;2023-08-06T03:08:26;17.20;79.80
24326;DHT22;12448;45.532;5.290;2023-08-06T03:10:52;17.20;80.20
24326;DHT22;12448;45.532;5.290;2023-08-06T03:13:24;17.20;80.20
24326;DHT22;12448;45.532;5.290;2023-08-06T03:15:55;17.10;80.60
24326;DHT22;12448;45.532;5.290;2023-08-06T03:18:21;17.00;80.80
24326;DHT22;12448;45.532;5.290;2023-08-06T03:20:47;17.10;80.80
24326;DHT22;12448;45.532;5.290;2023-08-06T03:23:13;17.00;80.70
24326;DHT22;12448;45.532;5.290;2023-08-06T03:25:39;17.00;80.70
24326;DHT22;12448;45.532;5.290;2023-08-06T03:28:04;17.10;80.60
24326;DHT22;12448;45.532;5.290;2023-08-06T03:30:30;17.10;80.50
24326;DHT22;12448;45.532;5.290;2023-08-06T03:32:56;17.00;80.50
24326;DHT22;12448;45.532;5.290;2023-08-06T03:35:21;17.00;81.30
24326;DHT22;12448;45.532;5.290;2023-08-06T03:37:47;16.90;80.70
24326;DHT22;12448;45.532;5.290;2023-08-06T03:40:13;17.00;80.80
24326;DHT22;12448;45.532;5.290;2023-08-06T03:42:39;16.90;80.80
24326;DHT22;12448;45.532;5.290;2023-08-06T03:45:05;16.90;80.60
24326;DHT22;12448;45.532;5.290;2023-08-06T03:47:31;16.90;80.30
24326;DHT22;12448;45.532;5.290;2023-08-06T03:49:57;16.80;80.30
24326;DHT22;12448;45.532;5.290;2023-08-06T03:52:22;16.90;80.30
24326;DHT22;12448;45.532;5.290;2023-08-06T03:54:48;16.90;80.20
24326;DHT22;12448;45.532;5.290;2023-08-06T03:57:14;16.90;80.30
24326;DHT22;12448;45.532;5.290;2023-08-06T03:59:39;16.90;80.30
24326;DHT22;12448;45.532;5.290;2023-08-06T04:02:05;16.90;80.30
24326;DHT22;12448;45.532;5.290;2023-08-06T04:04:31;16.80;80.40
24326;DHT22;12448;45.532;5.290;2023-08-06T04:06:56;16.80;80.40
24326;DHT22;12448;45.532;5.290;2023-08-06T04:09:22;16.80;80.30
24326;DHT22;12448;45.532;5.290;2023-08-06T04:11:48;16.70;80.20
24326;DHT22;12448;45.532;5.290;2023-08-06T04:14:13;16.80;80.20
24326;DHT22;12448;45.532;5.290;2023-08-06T04:16:39;16.90;80.10
24326;DHT22;12448;45.532;5.290;2023-08-06T04:19:05;17.00;80.10
24326;DHT22;12448;45.532;5.290;2023-08-06T04:21:30;17.10;80.10
24326;DHT22;12448;45.532;5.290;2023-08-06T04:23:56;17.30;80.10
24326;DHT22;12448;45.532;5.290;2023-08-06T04:26:22;17.40;80.00
24326;DHT22;12448;45.532;5.290;2023-08-06T04:28:53;17.40;79.60
24326;DHT22;12448;45.532;5.290;2023-08-06T04:31:19;17.50;79.50
24326;DHT22;12448;45.532;5.290;2023-08-06T04:33:45;17.60;79.20
24326;DHT22;12448;45.532;5.290;2023-08-06T04:36:11;17.60;79.00
24326;DHT22;12448;45.532;5.290;2023-08-06T04:38:37;17.60;78.90
24326;DHT22;12448;45.532;5.290;2023-08-06T04:41:04;17.60;79.10
24326;DHT22;12448;45.532;5.290;2023-08-06T04:43:29;17.60;78.90
24326;DHT22;12448;45.532;5.290;2023-08-06T04:45:55;17.70;78.60
24326;DHT22;12448;45.532;5.290;2023-08-06T04:48:22;17.40;77.80
24326;DHT22;12448;45.532;5.290;2023-08-06T04:50:49;17.70;77.70
24326;DHT22;12448;45.532;5.290;2023-08-06T04:53:16;17.60;77.60
24326;DHT22;12448;45.532;5.290;2023-08-06T04:55:42;17.40;77.80
24326;DHT22;12448;45.532;5.290;2023-08-06T04:58:09;17.30;77.80
24326;DHT22;12448;45.532;5.290;2023-08-06T05:00:35;17.10;78.40
24326;DHT22;12448;45.532;5.290;2023-08-06T05:03:01;17.10;78.80
24326;DHT22;12448;45.532;5.290;2023-08-06T05:05:28;17.00;79.10
24326;DHT22;12448;45.532;5.290;2023-08-06T05:07:55;16.90;79.40
24326;DHT22;12448;45.532;5.290;2023-08-06T05:10:21;16.80;79.20
24326;DHT22;12448;45.532;5.290;2023-08-06T05:12:47;16.80;79.70
24326;DHT22;12448;45.532;5.290;2023-08-06T05:15:12;16.80;80.00
24326;DHT22;12448;45.532;5.290;2023-08-06T05:17:38;16.70;80.10
24326;DHT22;12448;45.532;5.290;2023-08-06T05:20:04;16.80;80.20
24326;DHT22;12448;45.532;5.290;2023-08-06T05:22:30;16.70;79.30
24326;DHT22;12448;45.532;5.290;2023-08-06T05:24:55;16.50;79.20
24326;DHT22;12448;45.532;5.290;2023-08-06T05:27:21;16.30;79.90
24326;DHT22;12448;45.532;5.290;2023-08-06T05:29:48;16.30;80.60
24326;DHT22;12448;45.532;5.290;2023-08-06T05:32:13;16.20;80.70
24326;DHT22;12448;45.532;5.290;2023-08-06T05:34:39;16.10;80.90
24326;DHT22;12448;45.532;5.290;2023-08-06T05:37:06;16.10;79.60
24326;DHT22;12448;45.532;5.290;2023-08-06T05:39:32;16.10;79.90
24326;DHT22;12448;45.532;5.290;2023-08-06T05:41:58;16.20;80.20
24326;DHT22;12448;45.532;5.290;2023-08-06T05:44:24;16.20;79.70
24326;DHT22;12448;45.532;5.290;2023-08-06T05:46:50;16.20;79.70
24326;DHT22;12448;45.532;5.290;2023-08-06T05:49:15;16.30;79.70
24326;DHT22;12448;45.532;5.290;2023-08-06T05:51:41;16.30;79.80
24326;DHT22;12448;45.532;5.290;2023-08-06T05:54:07;16.30;79.60
24326;DHT22;12448;45.532;5.290;2023-08-06T05:56:33;16.20;79.90
24326;DHT22;12448;45.532;5.290;2023-08-06T05:58:58;16.10;80.50
24326;DHT22;12448;45.532;5.290;2023-08-06T06:01:24;16.00;80.40
24326;DHT22;12448;45.532;5.290;2023-08-06T06:03:59;15.80;80.90
24326;DHT22;12448;45.532;5.290;2023-08-06T06:06:25;15.90;81.40
24326;DHT22;12448;45.532;5.290;2023-08-06T06:08:50;15.80;81.20
24326;DHT22;12448;45.532;5.290;2023-08-06T06:11:16;15.80;81.60
24326;DHT22;12448;45.532;5.290;2023-08-06T06:13:42;15.80;81.70
24326;DHT22;12448;45.532;5.290;2023-08-06T06:16:07;15.80;81.50
24326;DHT22;12448;45.532;5.290;2023-08-06T06:18:33;15.90;81.20
24326;DHT22;12448;45.532;5.290;2023-08-06T06:20:59;15.90;81.10
24326;DHT22;12448;45.532;5.290;2023-08-06T06:23:24;16.00;81.00
24326;DHT22;12448;45.532;5.290;2023-08-06T06:25:53;16.10;80.90
24326;DHT22;12448;45.532;5.290;2023-08-06T06:28:19;16.20;80.90
24326;DHT22;12448;45.532;5.290;2023-08-06T06:30:45;16.20;81.00
24326;DHT22;12448;45.532;5.290;2023-08-06T06:33:10;16.20;80.80
24326;DHT22;12448;45.532;5.290;2023-08-06T06:35:37;16.30;80.40
24326;DHT22;12448;45.532;5.290;2023-08-06T06:38:02;16.30;80.30
24326;DHT22;12448;45.532;5.290;2023-08-06T06:40:28;16.30;80.20
24326;DHT22;12448;45.532;5.290;2023-08-06T06:42:54;16.30;80.80
24326;DHT22;12448;45.532;5.290;2023-08-06T06:45:19;16.40;80.20
24326;DHT22;12448;45.532;5.290;2023-08-06T06:47:45;16.40;80.20
24326;DHT22;12448;45.532;5.290;2023-08-06T06:50:11;16.50;80.30
24326;DHT22;12448;45.532;5.290;2023-08-06T06:52:37;16.40;79.50
24326;DHT22;12448;45.532;5.290;2023-08-06T06:55:03;16.40;80.00
24326;DHT22;12448;45.532;5.290;2023-08-06T06:57:29;16.50;79.90
24326;DHT22;12448;45.532;5.290;2023-08-06T06:59:54;16.50;79.10
24326;DHT22;12448;45.532;5.290;2023-08-06T07:02:20;16.60;78.90
24326;DHT22;12448;45.532;5.290;2023-08-06T07:04:46;16.60;78.50
24326;DHT22;12448;45.532;5.290;2023-08-06T07:07:12;16.60;78.60
24326;DHT22;12448;45.532;5.290;2023-08-06T07:09:37;16.60;78.60
24326;DHT22;12448;45.532;5.290;2023-08-06T07:12:03;16.60;79.00
24326;DHT22;12448;45.532;5.290;2023-08-06T07:14:29;16.50;78.40
24326;DHT22;12448;45.532;5.290;2023-08-06T07:16:55;16.50;78.90
24326;DHT22;12448;45.532;5.290;2023-08-06T07:19:21;16.60;79.20
24326;DHT22;12448;45.532;5.290;2023-08-06T07:21:46;16.60;79.40
24326;DHT22;12448;45.532;5.290;2023-08-06T07:24:12;16.60;79.10
24326;DHT22;12448;45.532;5.290;2023-08-06T07:26:38;16.70;79.20
24326;DHT22;12448;45.532;5.290;2023-08-06T07:29:04;16.70;79.10
24326;DHT22;12448;45.532;5.290;2023-08-06T07:31:29;16.70;78.80
24326;DHT22;12448;45.532;5.290;2023-08-06T07:33:55;16.70;79.30
24326;DHT22;12448;45.532;5.290;2023-08-06T07:36:21;16.70;79.30
24326;DHT22;12448;45.532;5.290;2023-08-06T07:38:46;16.80;79.60
24326;DHT22;12448;45.532;5.290;2023-08-06T07:41:14;16.80;79.70
24326;DHT22;12448;45.532;5.290;2023-08-06T07:43:40;16.90;78.80
24326;DHT22;12448;45.532;5.290;2023-08-06T07:46:05;16.90;78.70
24326;DHT22;12448;45.532;5.290;2023-08-06T07:48:31;16.80;78.70
24326;DHT22;12448;45.532;5.290;2023-08-06T07:50:57;16.80;77.40
24326;DHT22;12448;45.532;5.290;2023-08-06T07:53:24;16.80;77.80
24326;DHT22;12448;45.532;5.290;2023-08-06T07:55:53;16.80;77.80
24326;DHT22;12448;45.532;5.290;2023-08-06T07:58:19;16.80;77.70
24326;DHT22;12448;45.532;5.290;2023-08-06T08:00:46;16.90;77.50
24326;DHT22;12448;45.532;5.290;2023-08-06T08:03:15;16.90;77.60
24326;DHT22;12448;45.532;5.290;2023-08-06T08:05:42;17.00;77.50
24326;DHT22;12448;45.532;5.290;2023-08-06T08:08:08;16.90;77.10
24326;DHT22;12448;45.532;5.290;2023-08-06T08:10:34;16.90;76.90
24326;DHT22;12448;45.532;5.290;2023-08-06T08:13:01;16.90;77.30
24326;DHT22;12448;45.532;5.290;2023-08-06T08:15:29;17.00;75.80
24326;DHT22;12448;45.532;5.290;2023-08-06T08:17:54;16.90;76.30
24326;DHT22;12448;45.532;5.290;2023-08-06T08:20:20;16.90;76.50
24326;DHT22;12448;45.532;5.290;2023-08-06T08:22:46;16.80;76.30
24326;DHT22;12448;45.532;5.290;2023-08-06T08:25:13;16.80;76.60
24326;DHT22;12448;45.532;5.290;2023-08-06T08:27:38;16.80;76.80
24326;DHT22;12448;45.532;5.290;2023-08-06T08:30:05;16.90;77.00
24326;DHT22;12448;45.532;5.290;2023-08-06T08:32:30;16.90;76.80
24326;DHT22;12448;45.532;5.290;2023-08-06T08:34:56;16.90;77.00
24326;DHT22;12448;45.532;5.290;2023-08-06T08:37:23;17.00;76.90
24326;DHT22;12448;45.532;5.290;2023-08-06T08:39:49;17.10;75.80
24326;DHT22;12448;45.532;5.290;2023-08-06T08:42:17;17.10;76.00
24326;DHT22;12448;45.532;5.290;2023-08-06T08:44:44;17.00;77.80
24326;DHT22;12448;45.532;5.290;2023-08-06T08:47:11;16.90;78.10
24326;DHT22;12448;45.532;5.290;2023-08-06T08:49:37;16.80;78.20
24326;DHT22;12448;45.532;5.290;2023-08-06T08:52:04;16.80;78.40
24326;DHT22;12448;45.532;5.290;2023-08-06T08:54:38;16.80;78.10
24326;DHT22;12448;45.532;5.290;2023-08-06T08:57:05;16.80;77.80
24326;DHT22;12448;45.532;5.290;2023-08-06T08:59:35;16.80;77.60
24326;DHT22;12448;45.532;5.290;2023-08-06T09:02:02;16.80;77.40
24326;DHT22;12448;45.532;5.290;2023-08-06T09:04:29;16.80;77.30
24326;DHT22;12448;45.532;5.290;2023-08-06T09:06:58;16.80;77.70
24326;DHT22;12448;45.532;5.290;2023-08-06T09:09:31;16.70;78.30
24326;DHT22;12448;45.532;5.290;2023-08-06T09:12:01;16.60;79.30
24326;DHT22;12448;45.532;5.290;2023-08-06T09:14:28;16.40;79.80
24326;DHT22;12448;45.532;5.290;2023-08-06T09:16:54;16.30;80.30
24326;DHT22;12448;45.532;5.290;2023-08-06T09:19:23;16.30;80.70
24326;DHT22;12448;45.532;5.290;2023-08-06T09:21:51;16.30;81.30
24326;DHT22;12448;45.532;5.290;2023-08-06T09:24:17;16.30;81.40
24326;DHT22;12448;45.532;5.290;2023-08-06T09:26:46;16.30;80.90
24326;DHT22;12448;45.532;5.290;2023-08-06T09:29:11;16.30;81.20
24326;DHT22;12448;45.532;5.290;2023-08-06T09:31:42;16.30;80.60
24326;DHT22;12448;45.532;5.290;2023-08-06T09:34:19;16.30;80.60
24326;DHT22;12448;45.532;5.290;2023-08-06T09:36:52;16.40;80.80
24326;DHT22;12448;45.532;5.290;2023-08-06T09:39:29;16.60;80.50
24326;DHT22;12448;45.532;5.290;2023-08-06T09:41:59;16.70;79.90
24326;DHT22;12448;45.532;5.290;2023-08-06T09:44:27;16.70;77.80
24326;DHT22;12448;45.532;5.290;2023-08-06T09:46:58;16.80;77.90
24326;DHT22;12448;45.532;5.290;2023-08-06T09:52:02;17.00;76.00
24326;DHT22;12448;45.532;5.290;2023-08-06T09:54:28;17.10;76.20
24326;DHT22;12448;45.532;5.290;2023-08-06T09:56:56;17.20;75.30
24326;DHT22;12448;45.532;5.290;2023-08-06T09:59:25;17.30;74.90
24326;DHT22;12448;45.532;5.290;2023-08-06T10:01:51;17.40;75.00
24326;DHT22;12448;45.532;5.290;2023-08-06T10:04:16;17.50;74.80
24326;DHT22;12448;45.532;5.290;2023-08-06T10:06:46;17.60;75.00
24326;DHT22;12448;45.532;5.290;2023-08-06T10:09:11;17.70;74.60
24326;DHT22;12448;45.532;5.290;2023-08-06T10:11:38;17.70;74.20
24326;DHT22;12448;45.532;5.290;2023-08-06T10:14:12;17.70;74.70
24326;DHT22;12448;45.532;5.290;2023-08-06T10:16:39;17.80;75.00
24326;DHT22;12448;45.532;5.290;2023-08-06T10:19:08;17.90;74.90
24326;DHT22;12448;45.532;5.290;2023-08-06T10:21:34;18.10;74.30
24326;DHT22;12448;45.532;5.290;2023-08-06T10:24:00;18.10;73.00
24326;DHT22;12448;45.532;5.290;2023-08-06T10:26:28;18.10;73.10
24326;DHT22;12448;45.532;5.290;2023-08-06T10:28:54;18.00;72.50
24326;DHT22;12448;45.532;5.290;2023-08-06T10:32:06;18.00;72.80
24326;DHT22;12448;45.532;5.290;2023-08-06T10:34:07;18.00;70.40
24326;DHT22;12448;45.532;5.290;2023-08-06T10:36:33;17.90;71.70
24326;DHT22;12448;45.532;5.290;2023-08-06T10:38:58;17.90;71.40
24326;DHT22;12448;45.532;5.290;2023-08-06T10:41:30;18.00;72.90
24326;DHT22;12448;45.532;5.290;2023-08-06T10:44:06;18.00;71.60
24326;DHT22;12448;45.532;5.290;2023-08-06T10:46:35;18.10;71.10
24326;DHT22;12448;45.532;5.290;2023-08-06T10:49:01;18.00;71.20
24326;DHT22;12448;45.532;5.290;2023-08-06T10:51:27;18.20;71.90
24326;DHT22;12448;45.532;5.290;2023-08-06T10:53:56;18.20;69.80
24326;DHT22;12448;45.532;5.290;2023-08-06T10:56:24;18.30;70.90
24326;DHT22;12448;45.532;5.290;2023-08-06T10:58:56;18.50;71.10
24326;DHT22;12448;45.532;5.290;2023-08-06T11:01:28;18.40;69.00
24326;DHT22;12448;45.532;5.290;2023-08-06T11:04:20;18.40;69.50
24326;DHT22;12448;45.532;5.290;2023-08-06T11:07:25;18.20;70.30
24326;DHT22;12448;45.532;5.290;2023-08-06T11:09:50;18.20;71.40
24326;DHT22;12448;45.532;5.290;2023-08-06T11:12:22;17.90;70.20
24326;DHT22;12448;45.532;5.290;2023-08-06T11:14:54;17.70;71.20
24326;DHT22;12448;45.532;5.290;2023-08-06T11:17:29;17.60;70.40
24326;DHT22;12448;45.532;5.290;2023-08-06T11:20:01;17.60;71.10
24326;DHT22;12448;45.532;5.290;2023-08-06T11:22:27;17.70;70.70
24326;DHT22;12448;45.532;5.290;2023-08-06T11:24:55;17.70;70.60
24326;DHT22;12448;45.532;5.290;2023-08-06T11:27:21;17.70;71.50
24326;DHT22;12448;45.532;5.290;2023-08-06T11:29:50;17.90;71.70
24326;DHT22;12448;45.532;5.290;2023-08-06T11:32:16;17.90;71.20
24326;DHT22;12448;45.532;5.290;2023-08-06T11:34:47;18.00;71.40
24326;DHT22;12448;45.532;5.290;2023-08-06T11:37:13;18.10;71.20
24326;DHT22;12448;45.532;5.290;2023-08-06T11:39:46;18.10;71.20
24326;DHT22;12448;45.532;5.290;2023-08-06T11:42:18;18.10;71.50
24326;DHT22;12448;45.532;5.290;2023-08-06T11:44:43;18.10;71.50
24326;DHT22;12448;45.532;5.290;2023-08-06T11:47:15;18.20;70.70
24326;DHT22;12448;45.532;5.290;2023-08-06T11:49:48;18.30;71.00
24326;DHT22;12448;45.532;5.290;2023-08-06T11:52:22;18.40;69.90
24326;DHT22;12448;45.532;5.290;2023-08-06T11:55:09;18.30;69.20
24326;DHT22;12448;45.532;5.290;2023-08-06T11:57:43;18.50;69.50
24326;DHT22;12448;45.532;5.290;2023-08-06T12:00:11;18.50;68.20
24326;DHT22;12448;45.532;5.290;2023-08-06T12:02:45;18.70;67.80
24326;DHT22;12448;45.532;5.290;2023-08-06T12:05:12;18.90;67.50
24326;DHT22;12448;45.532;5.290;2023-08-06T12:07:45;19.10;65.60
24326;DHT22;12448;45.532;5.290;2023-08-06T12:10:11;19.10;64.30
24326;DHT22;12448;45.532;5.290;2023-08-06T12:12:37;19.10;64.60
24326;DHT22;12448;45.532;5.290;2023-08-06T12:15:04;19.00;65.40
24326;DHT22;12448;45.532;5.290;2023-08-06T12:17:31;18.90;64.60
24326;DHT22;12448;45.532;5.290;2023-08-06T12:19:57;18.80;64.50
24326;DHT22;12448;45.532;5.290;2023-08-06T12:22:23;18.80;65.20
24326;DHT22;12448;45.532;5.290;2023-08-06T12:24:48;18.80;65.90
24326;DHT22;12448;45.532;5.290;2023-08-06T12:27:14;18.90;65.60
24326;DHT22;12448;45.532;5.290;2023-08-06T12:29:46;18.90;64.00
24326;DHT22;12448;45.532;5.290;2023-08-06T12:32:12;19.00;63.30
24326;DHT22;12448;45.532;5.290;2023-08-06T12:34:39;18.90;63.70
24326;DHT22;12448;45.532;5.290;2023-08-06T12:37:05;19.00;63.90
24326;DHT22;12448;45.532;5.290;2023-08-06T12:39:32;19.00;64.50
24326;DHT22;12448;45.532;5.290;2023-08-06T12:41:59;19.10;63.80
24326;DHT22;12448;45.532;5.290;2023-08-06T12:44:25;19.30;64.50
24326;DHT22;12448;45.532;5.290;2023-08-06T12:46:52;19.40;64.70
24326;DHT22;12448;45.532;5.290;2023-08-06T12:49:19;19.40;64.40
24326;DHT22;12448;45.532;5.290;2023-08-06T12:51:47;19.40;63.50
24326;DHT22;12448;45.532;5.290;2023-08-06T12:54:12;19.30;63.30
24326;DHT22;12448;45.532;5.290;2023-08-06T12:56:38;19.30;64.10
24326;DHT22;12448;45.532;5.290;2023-08-06T12:59:03;19.10;63.70
24326;DHT22;12448;45.532;5.290;2023-08-06T13:01:29;19.10;64.40
24326;DHT22;12448;45.532;5.290;2023-08-06T13:03:55;19.10;64.80
24326;DHT22;12448;45.532;5.290;2023-08-06T13:06:20;19.10;65.00
24326;DHT22;12448;45.532;5.290;2023-08-06T13:08:46;19.10;65.10
24326;DHT22;12448;45.532;5.290;2023-08-06T13:11:11;19.10;65.20
24326;DHT22;12448;45.532;5.290;2023-08-06T13:13:37;19.30;65.10
24326;DHT22;12448;45.532;5.290;2023-08-06T13:16:03;19.30;63.00
24326;DHT22;12448;45.532;5.290;2023-08-06T13:31:53;19.50;62.50
24326;DHT22;12448;45.532;5.290;2023-08-06T13:38:47;19.40;63.70
24326;DHT22;12448;45.532;5.290;2023-08-06T13:48:53;19.20;65.00
24326;DHT22;12448;45.532;5.290;2023-08-06T13:51:25;19.10;65.00
24326;DHT22;12448;45.532;5.290;2023-08-06T13:54:35;19.20;64.60
24326;DHT22;12448;45.532;5.290;2023-08-06T13:57:24;19.30;64.40
24326;DHT22;12448;45.532;5.290;2023-08-06T13:59:49;19.40;64.40
24326;DHT22;12448;45.532;5.290;2023-08-06T14:02:15;19.50;62.80
24326;DHT22;12448;45.532;5.290;2023-08-06T14:04:41;19.70;63.10
24326;DHT22;12448;45.532;5.290;2023-08-06T14:07:07;19.90;64.10
24326;DHT22;12448;45.532;5.290;2023-08-06T14:09:32;20.10;63.70
24326;DHT22;12448;45.532;5.290;2023-08-06T14:12:00;20.40;63.10
24326;DHT22;12448;45.532;5.290;2023-08-06T14:14:25;20.60;61.20
24326;DHT22;12448;45.532;5.290;2023-08-06T14:16:53;20.50;59.10
24326;DHT22;12448;45.532;5.290;2023-08-06T14:19:19;20.50;59.50
24326;DHT22;12448;45.532;5.290;2023-08-06T14:21:45;20.50;59.90
24326;DHT22;12448;45.532;5.290;2023-08-06T14:24:15;20.50;60.10
24326;DHT22;12448;45.532;5.290;2023-08-06T14:26:40;20.30;59.60
24326;DHT22;12448;45.532;5.290;2023-08-06T14:29:12;20.10;59.90
24326;DHT22;12448;45.532;5.290;2023-08-06T14:32:16;20.00;60.70
24326;DHT22;12448;45.532;5.290;2023-08-06T14:38:07;19.60;61.60
24326;DHT22;12448;45.532;5.290;2023-08-06T14:40:33;19.50;62.00
24326;DHT22;12448;45.532;5.290;2023-08-06T14:43:11;19.40;62.60
24326;DHT22;12448;45.532;5.290;2023-08-06T14:49:26;19.30;62.80
24326;DHT22;12448;45.532;5.290;2023-08-06T14:51:52;19.20;62.60
24326;DHT22;12448;45.532;5.290;2023-08-06T14:54:29;19.20;63.60
24326;DHT22;12448;45.532;5.290;2023-08-06T14:57:21;19.10;63.10
24326;DHT22;12448;45.532;5.290;2023-08-06T14:59:53;19.10;63.60
24326;DHT22;12448;45.532;5.290;2023-08-06T15:02:18;19.20;63.20
24326;DHT22;12448;45.532;5.290;2023-08-06T15:04:47;19.30;64.00
24326;DHT22;12448;45.532;5.290;2023-08-06T15:07:51;19.40;62.60
24326;DHT22;12448;45.532;5.290;2023-08-06T15:10:20;19.40;62.20
24326;DHT22;12448;45.532;5.290;2023-08-06T15:12:46;19.40;61.90
24326;DHT22;12448;45.532;5.290;2023-08-06T15:15:11;19.40;62.70
24326;DHT22;12448;45.532;5.290;2023-08-06T15:17:37;19.40;62.40
24326;DHT22;12448;45.532;5.290;2023-08-06T15:20:23;19.40;62.70
24326;DHT22;12448;45.532;5.290;2023-08-06T15:23:08;19.40;62.60
24326;DHT22;12448;45.532;5.290;2023-08-06T15:25:33;19.30;62.60
24326;DHT22;12448;45.532;5.290;2023-08-06T15:27:59;19.40;63.20
24326;DHT22;12448;45.532;5.290;2023-08-06T15:30:28;19.40;63.00
24326;DHT22;12448;45.532;5.290;2023-08-06T15:33:36;19.60;63.30
24326;DHT22;12448;45.532;5.290;2023-08-06T15:36:15;19.80;62.60
24326;DHT22;12448;45.532;5.290;2023-08-06T15:38:40;19.80;62.10
24326;DHT22;12448;45.532;5.290;2023-08-06T15:41:06;19.90;62.60
24326;DHT22;12448;45.532;5.290;2023-08-06T15:43:41;20.00;62.00
24326;DHT22;12448;45.532;5.290;2023-08-06T15:46:17;19.90;61.00
24326;DHT22;12448;45.532;5.290;2023-08-06T15:50:22;19.80;61.90
24326;DHT22;12448;45.532;5.290;2023-08-06T15:52:49;19.70;62.80
24326;DHT22;12448;45.532;5.290;2023-08-06T15:55:51;19.60;63.60
24326;DHT22;12448;45.532;5.290;2023-08-06T15:58:22;19.50;63.60
24326;DHT22;12448;45.532;5.290;2023-08-06T16:00:48;19.50;64.60
24326;DHT22;12448;45.532;5.290;2023-08-06T16:03:14;19.50;65.40
24326;DHT22;12448;45.532;5.290;2023-08-06T16:05:39;19.70;65.30
24326;DHT22;12448;45.532;5.290;2023-08-06T16:08:05;19.70;64.80
24326;DHT22;12448;45.532;5.290;2023-08-06T16:11:19;19.80;65.30
24326;DHT22;12448;45.532;5.290;2023-08-06T16:13:38;19.80;64.40
24326;DHT22;12448;45.532;5.290;2023-08-06T16:16:04;19.90;64.30
24326;DHT22;12448;45.532;5.290;2023-08-06T16:18:36;19.90;63.80